Yorkton Municipal Airport
CYQV : now visible

Airfield :











YOU CAN JOIN US ON...

 
LOGIN :

Register | Disclaimer

   EN    FR    IT 

 









Legend :    VFR   Marginal VFR   IFR   Intensive IFR   Very Intensive IFR
Visi :
Ceiling :
>= 8 km
>= 3000ft
5 to 8 km
1000 to 3000 ft
1500m to 5 km
500 to 1000 ft
800 to 1500m
200 to 500 ft
< 800m
< 200 ft
Symbols :   Thunderstorms  Fog  Heavy snow  Heavy precipitations  Wind > 20 kt






- Airport Elevation : 1635 ft
- IATA code : YQV


CYQV - Yorkton Municipal

CURRENT METAR :
  • 072000Z AUTO 24006KT 220V290 9SM CLR 05/M01 A2961 RMK SLP049

EXPIRED METARs :
  • 071900Z AUTO 20006KT 190V250 9SM CLR 04/M04 A2961 RMK SLP050
  • 071800Z AUTO 19008KT 9SM CLR 03/M04 A2960 RMK SLP049

TAF TAF CYQV
Valid from the 07 at 18:00 until the 08 at 06:00 UTC


071740Z 0718/0806 14010KT P6SM BKN060
TEMPO 0718/0806 BKN020 BKN060
BECMG 0718/0720 28015G25KT RMK FCST BASED ON AUTO OBS. NXT FCST BY 080000Z



MET'MAP, your aeronautical weather chart ! - Copyright ORBIFLY December 2007 - Disclaimer

ORBIFLY MET'MAP TEAM :

Programming & Development : Alexandra Zaïnal
Concept & original design : Baudouin d'Aumeries
Assistance for programming : Marc-Olivier Méhu
Technical & hardware support : Manuel Goepfert

Contact : metmap@orbifly.com




SOURCES & CREDITS :

   NOAA       Earth
Advisory